AUA26V EDDS-LOWW
Flight info
| Callsign | AUA26V |
|---|---|
| Flight time | 0h 53m |
| Altitude | 31000 |
| Route | ABTAL4B ABTAL L173 RIXED Y161 RIDAR Z98 MIQ L605 BIBAG Q104 AKIMA DCT MASUR MASUR3W |
| Aircraft | A320/M-SDE3FGHIRWY/LB1 |
Departure
| Time | 2026-05-07 20:39 |
|---|---|
| Airport | Stuttgart Airport (EDDS) |
Arrival
| Time | 2026-05-07 21:33 |
|---|---|
| Airport | Vienna International Airport (LOWW) |
| Time | Latitude | Longitude | Altitude | Speed | Heading |
|---|---|---|---|---|---|
| 2026-05-07 20:03 | 48.68897 | 9.19428 | 1315 ft | 0 kts | 344° |
| 2026-05-07 20:25 | 48.68891 | 9.19431 | 1315 ft | 4 kts | 344° |
| 2026-05-07 20:25 | 48.68865 | 9.19442 | 1314 ft | 4 kts | 344° |
| 2026-05-07 20:25 | 48.68840 | 9.19452 | 1313 ft | 4 kts | 4° |
| 2026-05-07 20:26 | 48.68819 | 9.19437 | 1313 ft | 4 kts | 60° |
| 2026-05-07 20:26 | 48.68813 | 9.19418 | 1313 ft | 1 kts | 74° |
| 2026-05-07 20:29 | 48.68814 | 9.19419 | 1313 ft | 0 kts | 74° |
| 2026-05-07 20:29 | 48.68819 | 9.19449 | 1312 ft | 7 kts | 74° |
| 2026-05-07 20:29 | 48.68842 | 9.19568 | 1310 ft | 15 kts | 74° |
| 2026-05-07 20:29 | 48.68875 | 9.19744 | 1307 ft | 18 kts | 75° |
| 2026-05-07 20:30 | 48.68874 | 9.19879 | 1301 ft | 12 kts | 145° |
| 2026-05-07 20:30 | 48.68817 | 9.19967 | 1296 ft | 15 kts | 80° |
| 2026-05-07 20:30 | 48.68858 | 9.20132 | 1292 ft | 19 kts | 74° |
| 2026-05-07 20:30 | 48.68897 | 9.20346 | 1287 ft | 22 kts | 77° |
| 2026-05-07 20:31 | 48.68946 | 9.20592 | 1281 ft | 24 kts | 74° |
| 2026-05-07 20:31 | 48.68990 | 9.20824 | 1275 ft | 21 kts | 73° |
| 2026-05-07 20:31 | 48.69031 | 9.21045 | 1270 ft | 24 kts | 74° |
| 2026-05-07 20:31 | 48.69080 | 9.21305 | 1269 ft | 28 kts | 73° |
| 2026-05-07 20:32 | 48.69138 | 9.21604 | 1262 ft | 29 kts | 74° |
| 2026-05-07 20:32 | 48.69196 | 9.21914 | 1253 ft | 31 kts | 73° |
| 2026-05-07 20:32 | 48.69249 | 9.22197 | 1249 ft | 17 kts | 74° |
| 2026-05-07 20:32 | 48.69281 | 9.22361 | 1249 ft | 16 kts | 74° |
| 2026-05-07 20:33 | 48.69316 | 9.22551 | 1240 ft | 21 kts | 75° |
| 2026-05-07 20:33 | 48.69361 | 9.22787 | 1230 ft | 25 kts | 74° |
| 2026-05-07 20:33 | 48.69415 | 9.23064 | 1224 ft | 29 kts | 73° |
| 2026-05-07 20:33 | 48.69469 | 9.23357 | 1218 ft | 27 kts | 73° |
| 2026-05-07 20:34 | 48.69522 | 9.23634 | 1213 ft | 25 kts | 73° |
| 2026-05-07 20:34 | 48.69573 | 9.23901 | 1207 ft | 24 kts | 74° |
| 2026-05-07 20:34 | 48.69608 | 9.24084 | 1203 ft | 15 kts | 73° |
| 2026-05-07 20:34 | 48.69595 | 9.24195 | 1198 ft | 10 kts | 118° |
| 2026-05-07 20:35 | 48.69559 | 9.24280 | 1194 ft | 3 kts | 134° |
| 2026-05-07 20:35 | 48.69558 | 9.24281 | 1194 ft | 0 kts | 136° |
| 2026-05-07 20:36 | 48.69547 | 9.24292 | 1193 ft | 4 kts | 150° |
| 2026-05-07 20:36 | 48.69543 | 9.24295 | 1193 ft | 0 kts | 154° |
| 2026-05-07 20:37 | 48.69527 | 9.24303 | 1192 ft | 5 kts | 161° |
| 2026-05-07 20:37 | 48.69503 | 9.24315 | 1191 ft | 0 kts | 163° |
| 2026-05-07 20:37 | 48.69500 | 9.24316 | 1191 ft | 3 kts | 164° |
| 2026-05-07 20:37 | 48.69421 | 9.24331 | 1190 ft | 13 kts | 185° |
| 2026-05-07 20:38 | 48.69382 | 9.24277 | 1192 ft | 0 kts | 254° |
| 2026-05-07 20:38 | 48.69376 | 9.24243 | 1192 ft | 17 kts | 254° |
| 2026-05-07 20:38 | 48.69260 | 9.23632 | 1205 ft | 98 kts | 254° |
| 2026-05-07 20:39 | 48.69014 | 9.22327 | 1268 ft | 153 kts | 255° |
| 2026-05-07 20:39 | 48.68754 | 9.20788 | 1872 ft | 153 kts | 256° |
| 2026-05-07 20:39 | 48.68471 | 9.19189 | 2513 ft | 161 kts | 254° |
| 2026-05-07 20:39 | 48.68134 | 9.17467 | 2935 ft | 183 kts | 253° |
| 2026-05-07 20:40 | 48.67735 | 9.15544 | 3431 ft | 201 kts | 252° |
| 2026-05-07 20:40 | 48.67281 | 9.13405 | 3864 ft | 225 kts | 252° |
| 2026-05-07 20:40 | 48.66796 | 9.11036 | 4495 ft | 243 kts | 249° |
| 2026-05-07 20:40 | 48.65815 | 9.08985 | 5437 ft | 246 kts | 214° |
| 2026-05-07 20:41 | 48.64190 | 9.08227 | 6399 ft | 251 kts | 178° |
| 2026-05-07 20:41 | 48.62540 | 9.09087 | 7304 ft | 258 kts | 145° |
| 2026-05-07 20:41 | 48.61341 | 9.11130 | 8229 ft | 266 kts | 115° |
| 2026-05-07 20:41 | 48.61045 | 9.13897 | 9027 ft | 280 kts | 86° |
| 2026-05-07 20:42 | 48.61419 | 9.16896 | 9615 ft | 298 kts | 79° |
| 2026-05-07 20:42 | 48.61722 | 9.20038 | 10346 ft | 309 kts | 84° |
| 2026-05-07 20:42 | 48.61902 | 9.23401 | 10695 ft | 333 kts | 86° |
| 2026-05-07 20:42 | 48.62277 | 9.26976 | 11036 ft | 356 kts | 74° |
| 2026-05-07 20:43 | 48.63141 | 9.30532 | 11703 ft | 364 kts | 68° |
| 2026-05-07 20:43 | 48.64107 | 9.34092 | 12526 ft | 368 kts | 66° |
| 2026-05-07 20:43 | 48.65115 | 9.37663 | 13363 ft | 372 kts | 66° |
| 2026-05-07 20:43 | 48.66150 | 9.41272 | 14156 ft | 375 kts | 66° |
| 2026-05-07 20:44 | 48.67195 | 9.44912 | 14859 ft | 379 kts | 66° |
| 2026-05-07 20:44 | 48.68251 | 9.48609 | 15557 ft | 384 kts | 66° |
| 2026-05-07 20:44 | 48.69307 | 9.52342 | 16253 ft | 388 kts | 66° |
| 2026-05-07 20:44 | 48.70353 | 9.56069 | 16929 ft | 392 kts | 66° |
| 2026-05-07 20:45 | 48.71424 | 9.59904 | 17584 ft | 397 kts | 66° |
| 2026-05-07 20:45 | 48.72504 | 9.63783 | 18260 ft | 402 kts | 66° |
| 2026-05-07 20:45 | 48.73596 | 9.67706 | 18869 ft | 406 kts | 66° |
| 2026-05-07 20:45 | 48.74699 | 9.71660 | 19490 ft | 409 kts | 66° |
| 2026-05-07 20:46 | 48.75812 | 9.75653 | 20107 ft | 413 kts | 66° |
| 2026-05-07 20:46 | 48.76929 | 9.79682 | 20729 ft | 416 kts | 66° |
| 2026-05-07 20:46 | 48.78049 | 9.83740 | 21340 ft | 419 kts | 66° |
| 2026-05-07 20:46 | 48.79180 | 9.87839 | 21932 ft | 423 kts | 66° |
| 2026-05-07 20:47 | 48.80319 | 9.91963 | 22512 ft | 426 kts | 66° |
| 2026-05-07 20:47 | 48.81466 | 9.96120 | 23072 ft | 429 kts | 66° |
| 2026-05-07 20:47 | 48.82621 | 10.00320 | 23614 ft | 432 kts | 66° |
| 2026-05-07 20:47 | 48.83771 | 10.04555 | 24074 ft | 436 kts | 68° |
| 2026-05-07 20:48 | 48.84617 | 10.08986 | 24517 ft | 439 kts | 78° |
| 2026-05-07 20:48 | 48.84990 | 10.13602 | 24933 ft | 443 kts | 88° |
| 2026-05-07 20:48 | 48.84867 | 10.18299 | 25333 ft | 446 kts | 97° |
| 2026-05-07 20:48 | 48.84481 | 10.22980 | 25757 ft | 449 kts | 97° |
| 2026-05-07 20:49 | 48.84094 | 10.27703 | 26172 ft | 452 kts | 97° |
| 2026-05-07 20:49 | 48.83701 | 10.32446 | 26578 ft | 454 kts | 98° |
| 2026-05-07 20:49 | 48.83026 | 10.37066 | 26961 ft | 456 kts | 108° |
| 2026-05-07 20:49 | 48.81862 | 10.41559 | 27334 ft | 458 kts | 117° |
| 2026-05-07 20:50 | 48.80244 | 10.45722 | 27710 ft | 460 kts | 127° |
| 2026-05-07 20:50 | 48.78211 | 10.49462 | 28073 ft | 460 kts | 135° |
| 2026-05-07 20:50 | 48.75997 | 10.52997 | 28431 ft | 463 kts | 135° |
| 2026-05-07 20:50 | 48.73775 | 10.56536 | 28793 ft | 465 kts | 135° |
| 2026-05-07 20:51 | 48.71542 | 10.60092 | 29127 ft | 467 kts | 135° |
| 2026-05-07 20:51 | 48.69300 | 10.63661 | 29451 ft | 469 kts | 135° |
| 2026-05-07 20:51 | 48.67047 | 10.67245 | 29748 ft | 471 kts | 135° |
| 2026-05-07 20:51 | 48.64783 | 10.70854 | 30041 ft | 473 kts | 135° |
| 2026-05-07 20:52 | 48.62624 | 10.74634 | 30288 ft | 477 kts | 127° |
| 2026-05-07 20:52 | 48.60861 | 10.78897 | 30500 ft | 480 kts | 118° |
| 2026-05-07 20:52 | 48.59619 | 10.83323 | 30746 ft | 481 kts | 108° |
| 2026-05-07 20:52 | 48.58803 | 10.88223 | 31033 ft | 481 kts | 99° |
| 2026-05-07 20:53 | 48.58494 | 10.93241 | 31324 ft | 481 kts | 92° |
| 2026-05-07 20:53 | 48.58359 | 10.98291 | 31615 ft | 481 kts | 92° |
| 2026-05-07 20:53 | 48.58219 | 11.03344 | 31902 ft | 481 kts | 92° |
| 2026-05-07 20:53 | 48.58074 | 11.08391 | 32194 ft | 481 kts | 92° |
| 2026-05-07 20:54 | 48.57927 | 11.13438 | 32489 ft | 482 kts | 92° |
| 2026-05-07 20:54 | 48.57796 | 11.18430 | 32772 ft | 482 kts | 92° |
| 2026-05-07 20:54 | 48.57694 | 11.23492 | 33059 ft | 483 kts | 91° |
| 2026-05-07 20:54 | 48.57616 | 11.28560 | 33357 ft | 483 kts | 91° |
| 2026-05-07 20:55 | 48.57544 | 11.33631 | 33653 ft | 483 kts | 91° |
| 2026-05-07 20:55 | 48.57467 | 11.38716 | 33939 ft | 484 kts | 91° |
| 2026-05-07 20:55 | 48.57378 | 11.43798 | 34206 ft | 485 kts | 91° |
| 2026-05-07 20:55 | 48.57274 | 11.48883 | 34463 ft | 485 kts | 92° |
| 2026-05-07 20:56 | 48.57200 | 11.52267 | 34640 ft | 485 kts | 92° |
| 2026-05-07 20:56 | 48.57076 | 11.57356 | 34904 ft | 484 kts | 94° |
| 2026-05-07 20:56 | 48.56642 | 11.62392 | 35159 ft | 483 kts | 103° |
| 2026-05-07 20:56 | 48.55915 | 11.67342 | 35413 ft | 483 kts | 103° |
| 2026-05-07 20:57 | 48.55186 | 11.72300 | 35664 ft | 483 kts | 103° |
| 2026-05-07 20:57 | 48.54464 | 11.77238 | 35903 ft | 483 kts | 103° |
| 2026-05-07 20:57 | 48.53742 | 11.82189 | 36126 ft | 483 kts | 103° |
| 2026-05-07 20:57 | 48.53019 | 11.87138 | 36358 ft | 483 kts | 103° |
| 2026-05-07 20:58 | 48.52292 | 11.92084 | 36585 ft | 483 kts | 104° |
| 2026-05-07 20:58 | 48.51565 | 11.97014 | 36814 ft | 482 kts | 104° |
| 2026-05-07 20:58 | 48.50831 | 12.01955 | 37028 ft | 483 kts | 104° |
| 2026-05-07 20:59 | 48.49354 | 12.11838 | 37094 ft | 483 kts | 104° |
| 2026-05-07 20:59 | 48.47872 | 12.21708 | 37085 ft | 483 kts | 104° |
| 2026-05-07 21:00 | 48.46385 | 12.31510 | 37084 ft | 483 kts | 104° |
| 2026-05-07 21:00 | 48.44887 | 12.41370 | 37084 ft | 483 kts | 104° |
| 2026-05-07 21:01 | 48.43380 | 12.51234 | 37081 ft | 483 kts | 104° |
| 2026-05-07 21:01 | 48.41865 | 12.61092 | 37083 ft | 483 kts | 104° |
| 2026-05-07 21:02 | 48.40337 | 12.70941 | 37083 ft | 483 kts | 103° |
| 2026-05-07 21:02 | 48.39883 | 12.81023 | 37085 ft | 485 kts | 88° |
| 2026-05-07 21:03 | 48.40202 | 12.91171 | 37088 ft | 485 kts | 88° |
| 2026-05-07 21:03 | 48.40505 | 13.01308 | 37091 ft | 485 kts | 88° |
| 2026-05-07 21:04 | 48.40794 | 13.11457 | 37082 ft | 485 kts | 88° |
| 2026-05-07 21:04 | 48.41068 | 13.21539 | 37080 ft | 485 kts | 88° |
| 2026-05-07 21:05 | 48.41332 | 13.31692 | 37085 ft | 486 kts | 88° |
| 2026-05-07 21:05 | 48.41810 | 13.41838 | 37086 ft | 486 kts | 85° |
| 2026-05-07 21:06 | 48.42494 | 13.51956 | 37075 ft | 486 kts | 85° |
| 2026-05-07 21:06 | 48.43143 | 13.62082 | 37074 ft | 486 kts | 85° |
| 2026-05-07 21:07 | 48.43722 | 13.72226 | 37080 ft | 486 kts | 86° |
| 2026-05-07 21:07 | 48.44273 | 13.82383 | 37078 ft | 486 kts | 86° |
| 2026-05-07 21:08 | 48.44817 | 13.92544 | 36876 ft | 487 kts | 86° |
| 2026-05-07 21:08 | 48.45093 | 13.97624 | 36612 ft | 487 kts | 86° |
| 2026-05-07 21:08 | 48.45367 | 14.02702 | 36377 ft | 486 kts | 86° |
| 2026-05-07 21:08 | 48.45639 | 14.07781 | 36133 ft | 486 kts | 86° |
| 2026-05-07 21:09 | 48.45907 | 14.12855 | 35890 ft | 486 kts | 86° |
| 2026-05-07 21:09 | 48.46170 | 14.17941 | 35633 ft | 486 kts | 86° |
| 2026-05-07 21:09 | 48.46425 | 14.22952 | 35406 ft | 486 kts | 86° |
| 2026-05-07 21:09 | 48.46683 | 14.28028 | 35167 ft | 487 kts | 86° |
| 2026-05-07 21:10 | 48.46943 | 14.33109 | 34926 ft | 487 kts | 86° |
| 2026-05-07 21:10 | 48.47201 | 14.38199 | 34669 ft | 487 kts | 86° |
| 2026-05-07 21:10 | 48.47459 | 14.43301 | 33626 ft | 491 kts | 86° |
| 2026-05-07 21:10 | 48.47716 | 14.48465 | 32405 ft | 495 kts | 86° |
| 2026-05-07 21:11 | 48.47971 | 14.53636 | 31238 ft | 496 kts | 86° |
| 2026-05-07 21:11 | 48.48225 | 14.58812 | 30154 ft | 494 kts | 85° |
| 2026-05-07 21:11 | 48.48708 | 14.68916 | 27962 ft | 464 kts | 86° |
| 2026-05-07 21:12 | 48.48932 | 14.73743 | 27185 ft | 460 kts | 86° |
| 2026-05-07 21:12 | 48.49152 | 14.78534 | 26417 ft | 457 kts | 86° |
| 2026-05-07 21:12 | 48.49369 | 14.83303 | 25656 ft | 455 kts | 86° |
| 2026-05-07 21:12 | 48.49586 | 14.88045 | 24907 ft | 452 kts | 86° |
| 2026-05-07 21:13 | 48.49800 | 14.92754 | 24173 ft | 450 kts | 86° |
| 2026-05-07 21:13 | 48.50015 | 14.97447 | 23390 ft | 447 kts | 86° |
| 2026-05-07 21:13 | 48.50228 | 15.02109 | 22645 ft | 443 kts | 86° |
| 2026-05-07 21:13 | 48.50434 | 15.06718 | 21980 ft | 438 kts | 86° |
| 2026-05-07 21:14 | 48.50634 | 15.11292 | 21347 ft | 434 kts | 86° |
| 2026-05-07 21:14 | 48.50830 | 15.15803 | 20728 ft | 430 kts | 86° |
| 2026-05-07 21:14 | 48.51022 | 15.20278 | 20147 ft | 425 kts | 86° |
| 2026-05-07 21:14 | 48.51211 | 15.24714 | 19577 ft | 422 kts | 86° |
| 2026-05-07 21:15 | 48.51400 | 15.29121 | 19005 ft | 419 kts | 86° |
| 2026-05-07 21:15 | 48.51585 | 15.33488 | 18449 ft | 416 kts | 86° |
| 2026-05-07 21:15 | 48.51764 | 15.37820 | 17847 ft | 412 kts | 87° |
| 2026-05-07 21:15 | 48.51646 | 15.42059 | 17639 ft | 397 kts | 101° |
| 2026-05-07 21:16 | 48.50946 | 15.45994 | 17547 ft | 381 kts | 108° |
| 2026-05-07 21:16 | 48.50192 | 15.49825 | 17460 ft | 382 kts | 108° |
| 2026-05-07 21:16 | 48.49434 | 15.53668 | 17370 ft | 382 kts | 108° |
| 2026-05-07 21:16 | 48.48682 | 15.57448 | 17272 ft | 381 kts | 108° |
| 2026-05-07 21:17 | 48.47913 | 15.61278 | 17182 ft | 381 kts | 108° |
| 2026-05-07 21:17 | 48.47145 | 15.65085 | 17092 ft | 380 kts | 108° |
| 2026-05-07 21:17 | 48.46375 | 15.68902 | 17004 ft | 380 kts | 108° |
| 2026-05-07 21:17 | 48.45610 | 15.72700 | 16905 ft | 378 kts | 108° |
| 2026-05-07 21:18 | 48.44845 | 15.76480 | 16808 ft | 375 kts | 108° |
| 2026-05-07 21:18 | 48.44087 | 15.80229 | 16731 ft | 374 kts | 108° |
| 2026-05-07 21:18 | 48.43331 | 15.83961 | 16643 ft | 373 kts | 109° |
| 2026-05-07 21:18 | 48.42571 | 15.87709 | 16555 ft | 373 kts | 109° |
| 2026-05-07 21:19 | 48.41814 | 15.91439 | 16472 ft | 372 kts | 108° |
| 2026-05-07 21:19 | 48.41055 | 15.95170 | 16367 ft | 372 kts | 108° |
| 2026-05-07 21:19 | 48.40297 | 15.98884 | 16296 ft | 371 kts | 108° |
| 2026-05-07 21:19 | 48.39535 | 16.02588 | 16208 ft | 370 kts | 108° |
| 2026-05-07 21:20 | 48.38761 | 16.06340 | 16046 ft | 384 kts | 108° |
| 2026-05-07 21:20 | 48.37979 | 16.10135 | 15572 ft | 386 kts | 108° |
| 2026-05-07 21:20 | 48.37184 | 16.13990 | 14963 ft | 384 kts | 108° |
| 2026-05-07 21:20 | 48.36396 | 16.17809 | 14430 ft | 381 kts | 108° |
| 2026-05-07 21:21 | 48.35614 | 16.21590 | 13893 ft | 377 kts | 108° |
| 2026-05-07 21:21 | 48.34839 | 16.25342 | 13308 ft | 374 kts | 108° |
| 2026-05-07 21:21 | 48.34069 | 16.29061 | 12712 ft | 371 kts | 108° |
| 2026-05-07 21:21 | 48.33304 | 16.32733 | 12130 ft | 367 kts | 108° |
| 2026-05-07 21:22 | 48.32540 | 16.36381 | 11531 ft | 364 kts | 108° |
| 2026-05-07 21:22 | 48.31784 | 16.39999 | 10938 ft | 361 kts | 108° |
| 2026-05-07 21:22 | 48.31033 | 16.43582 | 10364 ft | 358 kts | 109° |
| 2026-05-07 21:22 | 48.30075 | 16.47001 | 9893 ft | 351 kts | 118° |
| 2026-05-07 21:23 | 48.28824 | 16.50013 | 9750 ft | 326 kts | 128° |
| 2026-05-07 21:23 | 48.27419 | 16.52524 | 9435 ft | 305 kts | 134° |
| 2026-05-07 21:23 | 48.25871 | 16.54618 | 8896 ft | 294 kts | 142° |
| 2026-05-07 21:23 | 48.24248 | 16.56441 | 8399 ft | 290 kts | 143° |
| 2026-05-07 21:24 | 48.22635 | 16.58254 | 7888 ft | 291 kts | 143° |
| 2026-05-07 21:24 | 48.21039 | 16.60058 | 7471 ft | 283 kts | 143° |
| 2026-05-07 21:24 | 48.19560 | 16.61983 | 6933 ft | 280 kts | 135° |
| 2026-05-07 21:24 | 48.18291 | 16.64171 | 6537 ft | 272 kts | 127° |
| 2026-05-07 21:25 | 48.17281 | 16.66462 | 6287 ft | 258 kts | 119° |
| 2026-05-07 21:25 | 48.16476 | 16.68823 | 5910 ft | 250 kts | 116° |
| 2026-05-07 21:25 | 48.15716 | 16.71138 | 5518 ft | 245 kts | 116° |
| 2026-05-07 21:25 | 48.14968 | 16.73399 | 5156 ft | 245 kts | 116° |
| 2026-05-07 21:26 | 48.14216 | 16.75665 | 4906 ft | 239 kts | 116° |
| 2026-05-07 21:26 | 48.13481 | 16.77871 | 4635 ft | 235 kts | 116° |
| 2026-05-07 21:26 | 48.12753 | 16.80058 | 4288 ft | 235 kts | 116° |
| 2026-05-07 21:26 | 48.11973 | 16.82208 | 3945 ft | 235 kts | 128° |
| 2026-05-07 21:27 | 48.10781 | 16.83862 | 3610 ft | 235 kts | 143° |
| 2026-05-07 21:27 | 48.09461 | 16.85251 | 3404 ft | 227 kts | 155° |
| 2026-05-07 21:27 | 48.07976 | 16.85703 | 3149 ft | 215 kts | 192° |
| 2026-05-07 21:27 | 48.06577 | 16.85082 | 3007 ft | 208 kts | 213° |
| 2026-05-07 21:28 | 48.05431 | 16.83819 | 3001 ft | 204 kts | 232° |
| 2026-05-07 21:28 | 48.04634 | 16.82093 | 3005 ft | 200 kts | 251° |
| 2026-05-07 21:28 | 48.04260 | 16.80134 | 3004 ft | 194 kts | 268° |
| 2026-05-07 21:28 | 48.04311 | 16.78164 | 3004 ft | 183 kts | 285° |
| 2026-05-07 21:29 | 48.04725 | 16.76426 | 3003 ft | 175 kts | 298° |
| 2026-05-07 21:29 | 48.05260 | 16.74802 | 2995 ft | 174 kts | 298° |
| 2026-05-07 21:29 | 48.05785 | 16.73202 | 2899 ft | 167 kts | 297° |
| 2026-05-07 21:29 | 48.06284 | 16.71682 | 2694 ft | 159 kts | 297° |
| 2026-05-07 21:30 | 48.06751 | 16.70257 | 2487 ft | 146 kts | 297° |
| 2026-05-07 21:30 | 48.07177 | 16.68958 | 2320 ft | 134 kts | 297° |
| 2026-05-07 21:30 | 48.07579 | 16.67730 | 2132 ft | 129 kts | 297° |
| 2026-05-07 21:30 | 48.07970 | 16.66541 | 1957 ft | 127 kts | 297° |
| 2026-05-07 21:31 | 48.08362 | 16.65360 | 1797 ft | 127 kts | 297° |
| 2026-05-07 21:31 | 48.08748 | 16.64183 | 1628 ft | 128 kts | 296° |
| 2026-05-07 21:31 | 48.09138 | 16.62984 | 1443 ft | 128 kts | 295° |
| 2026-05-07 21:31 | 48.09523 | 16.61793 | 1277 ft | 128 kts | 294° |
| 2026-05-07 21:32 | 48.09915 | 16.60582 | 1085 ft | 130 kts | 294° |
| 2026-05-07 21:32 | 48.10315 | 16.59362 | 934 ft | 131 kts | 293° |
| 2026-05-07 21:32 | 48.10716 | 16.58134 | 746 ft | 132 kts | 293° |
| 2026-05-07 21:32 | 48.11120 | 16.56924 | 620 ft | 123 kts | 289° |
| 2026-05-07 21:33 | 48.11422 | 16.55968 | 613 ft | 78 kts | 296° |
| 2026-05-07 21:33 | 48.11601 | 16.55461 | 611 ft | 38 kts | 304° |
| 2026-05-07 21:33 | 48.11754 | 16.55208 | 609 ft | 26 kts | 316° |
| 2026-05-07 21:33 | 48.11850 | 16.55141 | 619 ft | 9 kts | 0° |
| 2026-05-07 21:34 | 48.11885 | 16.55198 | 609 ft | 8 kts | 100° |
| 2026-05-07 21:34 | 48.11862 | 16.55270 | 617 ft | 8 kts | 116° |
| 2026-05-07 21:34 | 48.11832 | 16.55364 | 621 ft | 12 kts | 116° |
| 2026-05-07 21:34 | 48.11786 | 16.55503 | 615 ft | 18 kts | 116° |
| 2026-05-07 21:35 | 48.11724 | 16.55696 | 619 ft | 23 kts | 116° |
| 2026-05-07 21:35 | 48.11651 | 16.55919 | 615 ft | 25 kts | 116° |
| 2026-05-07 21:35 | 48.11588 | 16.56121 | 613 ft | 15 kts | 105° |
| 2026-05-07 21:35 | 48.11642 | 16.56227 | 611 ft | 13 kts | 39° |
| 2026-05-07 21:36 | 48.11719 | 16.56288 | 609 ft | 12 kts | 26° |
| 2026-05-07 21:36 | 48.11755 | 16.56377 | 614 ft | 11 kts | 111° |
| 2026-05-07 21:36 | 48.11724 | 16.56473 | 622 ft | 10 kts | 116° |
| 2026-05-07 21:36 | 48.11687 | 16.56545 | 614 ft | 7 kts | 174° |
| 2026-05-07 21:37 | 48.11646 | 16.56516 | 613 ft | 4 kts | 206° |
| 2026-05-07 21:37 | 48.11633 | 16.56507 | 611 ft | 0 kts | 206° |